Time;durP1;ratioP1;P1;durP2;ratioP2;P2;SDS_P1;SDS_P2;PMS_P1;PMS_P2;Temp;Humidity;BMP_temperature;BMP_pressure;BME280_temperature;BME280_humidity;BME280_pressure;Samples;Min_cycle;Max_cycle;Signal;HPM_P1;HPM_P2
2023/06/09 04:01:18;;;;;;;3.93;2.83;;;15.80;99.90;;;;;;5524483;23;20582;-74
2023/06/09 04:03:45;;;;;;;2.87;2.70;;;15.90;99.90;;;;;;4964476;28;21126;-73
2023/06/09 04:06:12;;;;;;;3.60;3.40;;;16.00;99.90;;;;;;4958135;28;20575;-74
2023/06/09 04:08:39;;;;;;;2.60;2.47;;;16.00;99.90;;;;;;4972513;28;20479;-74
2023/06/09 04:11:05;;;;;;;2.50;2.40;;;16.20;99.90;;;;;;4973252;28;20488;-74
2023/06/09 04:13:32;;;;;;;2.93;2.43;;;16.30;99.90;;;;;;4970123;28;20466;-74
2023/06/09 04:15:59;;;;;;;2.33;2.17;;;16.40;99.90;;;;;;4991284;23;20495;-70
2023/06/09 04:18:27;;;;;;;5.50;2.17;;;16.50;99.90;;;;;;4972784;28;20542;-71
2023/06/09 04:20:54;;;;;;;4.87;3.60;;;16.60;99.90;;;;;;4972977;28;20812;-71
2023/06/09 04:23:21;;;;;;;3.37;3.07;;;16.80;99.90;;;;;;4973273;28;20484;-71
2023/06/09 04:25:47;;;;;;;6.60;2.40;;;17.20;99.90;;;;;;4970743;28;20478;-70
2023/06/09 04:28:14;;;;;;;2.83;2.70;;;17.30;99.90;;;;;;4949633;28;20485;-71
2023/06/09 04:30:41;;;;;;;2.87;2.67;;;17.50;99.90;;;;;;4941830;28;20468;-71
2023/06/09 04:33:09;;;;;;;3.83;3.17;;;17.50;99.90;;;;;;4968270;28;20580;-71
2023/06/09 04:35:37;;;;;;;2.60;2.40;;;17.60;99.90;;;;;;4964228;28;20546;-71
2023/06/09 04:38:03;;;;;;;3.70;3.40;;;17.60;99.90;;;;;;4959057;28;20472;-71
2023/06/09 04:40:30;;;;;;;2.07;1.97;;;17.70;99.90;;;;;;4957659;28;20469;-71
2023/06/09 04:42:59;;;;;;;9.10;3.10;;;17.80;99.90;;;;;;4949249;28;20493;-71
2023/06/09 04:45:27;;;;;;;3.23;1.70;;;17.90;99.90;;;;;;4952284;29;20476;-71
2023/06/09 04:47:57;;;;;;;3.23;2.33;;;18.00;99.90;;;;;;4960927;28;20523;-71
2023/06/09 04:50:24;;;;;;;2.77;2.53;;;18.00;99.90;;;;;;4961803;28;20559;-70
2023/06/09 04:52:52;;;;;;;2.27;2.07;;;18.10;99.90;;;;;;4954163;28;20461;-70
2023/06/09 04:55:19;;;;;;;2.40;2.30;;;18.10;99.90;;;;;;4966910;28;20483;-70
2023/06/09 04:57:46;;;;;;;2.30;2.20;;;18.10;99.90;;;;;;4943715;28;20515;-70
2023/06/09 05:00:16;;;;;;;2.47;2.37;;;18.20;99.90;;;;;;4944133;28;20461;-71
2023/06/09 05:02:42;;;;;;;1.93;1.83;;;18.10;99.90;;;;;;4951965;28;21025;-69
2023/06/09 05:05:10;;;;;;;2.90;1.93;;;18.00;99.90;;;;;;4962537;28;20460;-70
2023/06/09 05:07:39;;;;;;;2.73;2.50;;;18.00;99.90;;;;;;4956091;28;20596;-71
2023/06/09 05:10:08;;;;;;;2.80;2.50;;;18.00;99.90;;;;;;4951827;28;20472;-71
2023/06/09 05:12:36;;;;;;;4.30;3.20;;;18.10;99.90;;;;;;4952286;28;20542;-71
2023/06/09 05:15:03;;;;;;;2.80;2.60;;;18.30;99.90;;;;;;4951668;28;20480;-71
2023/06/09 05:17:30;;;;;;;2.40;2.30;;;18.50;99.90;;;;;;4958829;28;20503;-70
2023/06/09 05:19:56;;;;;;;3.37;3.17;;;18.70;99.90;;;;;;4953715;28;20983;-70
2023/06/09 05:22:23;;;;;;;8.60;3.20;;;19.00;99.90;;;;;;4954694;28;20491;-70
2023/06/09 05:24:50;;;;;;;2.03;2.03;;;19.70;99.90;;;;;;4957878;28;20476;-70
2023/06/09 05:27:18;;;;;;;2.57;2.37;;;20.20;99.90;;;;;;4964108;28;20489;-70
2023/06/09 05:29:45;;;;;;;2.80;2.70;;;20.70;99.90;;;;;;4958689;28;20479;-72
2023/06/09 05:32:11;;;;;;;2.30;2.20;;;21.00;99.90;;;;;;4963325;28;20956;-71
2023/06/09 05:34:38;;;;;;;4.20;2.40;;;21.10;99.90;;;;;;4950929;28;20478;-70
2023/06/09 05:37:06;;;;;;;2.43;2.40;;;21.20;99.90;;;;;;4952277;28;21033;-70
2023/06/09 05:39:33;;;;;;;2.20;2.10;;;21.10;99.90;;;;;;4943882;28;20526;-71
2023/06/09 05:42:01;;;;;;;2.73;2.53;;;20.90;99.90;;;;;;4951950;28;20478;-70
2023/06/09 05:44:29;;;;;;;1.93;1.83;;;20.70;99.90;;;;;;4949071;28;20473;-69
2023/06/09 05:46:56;;;;;;;3.17;2.97;;;20.50;99.90;;;;;;4953615;28;20668;-70
2023/06/09 05:49:23;;;;;;;2.30;2.20;;;20.60;99.90;;;;;;4952624;28;20469;-70
2023/06/09 05:51:50;;;;;;;2.30;2.20;;;20.70;99.90;;;;;;4953871;28;20473;-70
2023/06/09 05:54:17;;;;;;;2.77;2.67;;;20.90;99.90;;;;;;4948958;28;20869;-70
2023/06/09 05:56:44;;;;;;;2.60;2.03;;;21.20;99.90;;;;;;4953912;28;20491;-70
2023/06/09 05:59:11;;;;;;;2.60;2.50;;;21.70;99.90;;;;;;4942493;28;20472;-70
2023/06/09 06:01:39;;;;;;;2.87;2.63;;;22.20;99.90;;;;;;4949062;28;20472;-70
2023/06/09 06:04:05;;;;;;;1.93;1.93;;;22.70;99.90;;;;;;4949252;28;20487;-70
2023/06/09 06:06:32;;;;;;;2.37;2.27;;;23.10;99.90;;;;;;4937754;29;21042;-70
2023/06/09 06:08:59;;;;;;;1.93;1.83;;;23.60;99.90;;;;;;4956387;28;20480;-70
2023/06/09 06:11:26;;;;;;;2.60;2.50;;;23.90;99.90;;;;;;4952047;28;20842;-70
2023/06/09 06:13:53;;;;;;;2.10;2.00;;;24.30;99.90;;;;;;4956699;28;20500;-70
2023/06/09 06:16:19;;;;;;;2.23;2.13;;;24.50;99.90;;;;;;4952310;29;20493;-70
2023/06/09 06:18:47;;;;;;;2.10;2.10;;;24.90;99.90;;;;;;4955544;28;20473;-70
2023/06/09 06:21:14;;;;;;;2.23;2.13;;;25.20;99.90;;;;;;4957329;28;20477;-71
2023/06/09 06:23:41;;;;;;;2.37;2.33;;;25.60;99.30;;;;;;4956154;28;20488;-70
2023/06/09 06:26:08;;;;;;;2.60;2.50;;;26.10;98.20;;;;;;4953027;28;20485;-71
2023/06/09 06:28:34;;;;;;;1.63;1.63;;;26.60;97.00;;;;;;4948328;28;20472;-71
2023/06/09 06:31:02;;;;;;;4.30;1.97;;;27.00;95.90;;;;;;4954612;28;20468;-71
2023/06/09 06:33:30;;;;;;;2.03;2.03;;;27.40;94.40;;;;;;4947054;28;21028;-71
2023/06/09 06:35:58;;;;;;;1.73;1.73;;;27.70;93.60;;;;;;4945472;28;20484;-71
2023/06/09 06:38:25;;;;;;;2.67;1.90;;;27.50;92.90;;;;;;4945761;28;20960;-72
2023/06/09 06:40:52;;;;;;;1.97;1.97;;;27.50;92.80;;;;;;4955687;28;20822;-74
2023/06/09 06:43:19;;;;;;;1.90;1.90;;;27.50;92.50;;;;;;4954635;28;20491;-72
2023/06/09 06:45:45;;;;;;;2.47;2.37;;;27.60;92.10;;;;;;4958951;28;20825;-73
2023/06/09 06:48:12;;;;;;;2.43;2.37;;;27.50;91.80;;;;;;4956902;28;20492;-73
2023/06/09 06:50:40;;;;;;;2.07;2.07;;;27.50;92.30;;;;;;4962185;28;20472;-73
2023/06/09 06:53:08;;;;;;;1.90;1.90;;;28.00;92.10;;;;;;4949612;28;20464;-73
2023/06/09 06:55:35;;;;;;;1.97;1.80;;;28.50;90.80;;;;;;4949128;29;20471;-72
2023/06/09 06:58:03;;;;;;;2.63;2.53;;;28.40;90.20;;;;;;4949115;28;20500;-72
2023/06/09 07:00:29;;;;;;;2.10;2.03;;;28.30;90.10;;;;;;4947332;28;21051;-73
2023/06/09 07:02:56;;;;;;;1.93;1.93;;;28.30;90.00;;;;;;4941233;28;20497;-73
2023/06/09 07:05:23;;;;;;;3.17;2.73;;;28.30;90.10;;;;;;4958603;28;20483;-72
2023/06/09 07:07:50;;;;;;;2.33;2.23;;;28.30;90.00;;;;;;4949568;28;20548;-71
2023/06/09 07:10:18;;;;;;;1.90;1.90;;;28.60;90.10;;;;;;4964052;28;20468;-72
2023/06/09 07:12:45;;;;;;;2.07;1.87;;;28.60;89.10;;;;;;4948578;28;20464;-71
2023/06/09 07:15:12;;;;;;;2.53;2.43;;;28.40;90.10;;;;;;4955005;28;20460;-71
2023/06/09 07:17:38;;;;;;;2.20;2.20;;;28.70;89.40;;;;;;4907921;28;1043537;-71
2023/06/09 07:20:06;;;;;;;2.77;2.47;;;28.90;88.10;;;;;;4943369;28;20534;-71
2023/06/09 07:22:33;;;;;;;2.40;2.20;;;28.80;88.60;;;;;;4957130;28;20470;-72
2023/06/09 07:25:00;;;;;;;1.80;1.80;;;29.00;89.60;;;;;;4963599;28;20468;-72
2023/06/09 07:27:28;;;;;;;1.90;1.90;;;29.20;87.90;;;;;;4941582;28;20492;-71
2023/06/09 07:29:56;;;;;;;1.77;1.57;;;29.10;87.10;;;;;;4945116;28;20469;-71
2023/06/09 07:32:22;;;;;;;1.83;1.73;;;29.40;87.00;;;;;;4949830;28;20471;-71
2023/06/09 07:34:50;;;;;;;2.40;2.23;;;29.20;87.30;;;;;;4959671;28;20461;-71
2023/06/09 07:37:17;;;;;;;2.77;2.67;;;29.00;87.10;;;;;;4962057;28;20483;-71
2023/06/09 07:39:43;;;;;;;1.90;1.90;;;29.40;86.60;;;;;;4952817;28;20460;-71
2023/06/09 07:42:10;;;;;;;2.33;2.20;;;29.10;86.60;;;;;;4962436;28;20464;-71
2023/06/09 07:44:39;;;;;;;2.13;2.03;;;29.30;86.90;;;;;;4950809;28;20576;-71
2023/06/09 07:47:06;;;;;;;2.30;2.20;;;29.40;85.90;;;;;;4959251;28;20570;-72
2023/06/09 07:49:33;;;;;;;1.60;1.60;;;29.90;85.80;;;;;;4958778;28;20484;-71
2023/06/09 07:52:00;;;;;;;2.30;2.30;;;30.00;82.90;;;;;;4955282;28;20480;-72
2023/06/09 07:54:27;;;;;;;2.33;2.20;;;29.60;82.20;;;;;;4945461;28;20560;-72
2023/06/09 07:56:54;;;;;;;1.90;1.83;;;29.70;84.00;;;;;;4958736;28;20501;-72
2023/06/09 07:59:21;;;;;;;2.10;2.03;;;29.60;83.20;;;;;;4962312;28;20494;-72
2023/06/09 08:01:49;;;;;;;1.47;1.47;;;30.10;80.80;;;;;;4947937;28;20500;-72
2023/06/09 08:04:16;;;;;;;3.73;3.43;;;29.80;79.70;;;;;;4951420;28;20500;-71
2023/06/09 08:06:44;;;;;;;1.37;1.37;;;29.60;80.10;;;;;;4942869;28;20865;-72
2023/06/09 08:09:10;;;;;;;1.73;1.63;;;29.70;79.80;;;;;;4947573;28;20780;-72
2023/06/09 08:11:38;;;;;;;1.27;1.27;;;29.40;80.00;;;;;;4950231;28;20980;-71
2023/06/09 08:14:06;;;;;;;1.60;1.60;;;29.20;80.20;;;;;;4960640;28;20808;-71
2023/06/09 08:16:33;;;;;;;2.30;2.30;;;29.30;81.00;;;;;;4959358;28;20993;-71
2023/06/09 08:19:01;;;;;;;2.07;1.97;;;29.20;79.50;;;;;;4951071;28;20464;-71
2023/06/09 08:21:28;;;;;;;2.17;2.07;;;29.10;79.30;;;;;;4948768;28;20472;-71
2023/06/09 08:23:55;;;;;;;3.93;2.63;;;29.20;80.00;;;;;;4954109;28;20503;-72
2023/06/09 08:26:21;;;;;;;2.70;2.57;;;29.20;77.70;;;;;;4965441;28;20485;-71
2023/06/09 08:28:48;;;;;;;1.80;1.80;;;29.20;79.50;;;;;;4955590;28;20799;-71
2023/06/09 08:31:15;;;;;;;1.83;1.83;;;29.00;79.10;;;;;;4957301;28;20479;-71
2023/06/09 08:33:42;;;;;;;2.37;2.27;;;28.80;80.00;;;;;;4956009;28;20464;-71
2023/06/09 08:36:10;;;;;;;1.53;1.53;;;28.80;78.30;;;;;;4954474;28;20485;-73
2023/06/09 08:38:37;;;;;;;1.70;1.67;;;28.90;77.80;;;;;;4949859;29;20473;-73
2023/06/09 08:41:08;;;;;;;1.67;1.67;;;29.10;77.20;;;;;;4952644;28;20476;-71
2023/06/09 08:43:35;;;;;;;1.93;1.60;;;28.90;73.50;;;;;;4948156;28;20488;-72
2023/06/09 08:46:05;;;;;;;1.50;1.50;;;28.80;74.70;;;;;;4945629;28;20496;-72
2023/06/09 08:48:33;;;;;;;1.80;1.80;;;28.50;74.50;;;;;;4952973;28;20475;-73
2023/06/09 08:51:00;;;;;;;2.30;1.70;;;28.30;73.50;;;;;;4953210;28;20476;-73
2023/06/09 08:53:29;;;;;;;1.90;1.80;;;28.10;75.70;;;;;;4937328;29;20473;-71
2023/06/09 08:55:56;;;;;;;3.90;2.40;;;27.70;74.30;;;;;;4949321;28;20553;-73
2023/06/09 08:58:24;;;;;;;1.43;1.43;;;28.00;74.40;;;;;;4954709;28;20484;-72
2023/06/09 09:00:52;;;;;;;1.97;1.87;;;28.00;70.80;;;;;;4956088;28;20965;-72
2023/06/09 09:03:20;;;;;;;2.20;2.00;;;28.10;71.10;;;;;;4954531;28;20933;-73
2023/06/09 09:05:48;;;;;;;1.37;1.37;;;28.20;71.30;;;;;;4952562;28;20472;-71
2023/06/09 09:08:15;;;;;;;1.63;1.63;;;28.30;71.50;;;;;;4950361;28;20478;-70
2023/06/09 09:10:45;;;;;;;1.83;1.80;;;28.10;70.40;;;;;;4952174;28;20469;-72
2023/06/09 09:13:13;;;;;;;1.43;1.43;;;27.60;69.70;;;;;;4960058;28;20476;-72
2023/06/09 09:15:47;;;;;;;1.83;1.83;;;27.60;70.10;;;;;;4942917;28;20488;-72
2023/06/09 09:18:16;;;;;;;1.47;1.47;;;27.50;68.50;;;;;;4947104;28;20469;-72
2023/06/09 09:20:43;;;;;;;1.43;1.43;;;27.60;68.70;;;;;;4945886;28;20557;-71
2023/06/09 09:23:09;;;;;;;1.70;1.70;;;27.40;68.50;;;;;;4954506;28;20469;-71
2023/06/09 09:25:36;;;;;;;1.60;1.60;;;27.20;70.40;;;;;;4942568;28;20470;-72
2023/06/09 09:28:06;;;;;;;1.17;1.17;;;27.20;71.10;;;;;;4937731;28;20511;-70
2023/06/09 09:30:48;;;;;;;1.00;1.00;;;27.20;72.00;;;;;;4952459;28;20578;-72
2023/06/09 09:33:18;;;;;;;1.30;1.30;;;27.40;72.20;;;;;;4952176;28;20468;-73
2023/06/09 09:35:47;;;;;;;1.63;1.63;;;27.30;68.20;;;;;;4946312;28;20933;-71
2023/06/09 09:38:16;;;;;;;2.20;2.10;;;27.20;70.70;;;;;;4950830;28;20933;-71
2023/06/09 09:40:47;;;;;;;1.90;1.90;;;27.00;69.70;;;;;;4953336;28;21021;-71
2023/06/09 09:43:16;;;;;;;1.73;1.70;;;26.90;68.90;;;;;;4950873;28;20466;-71
2023/06/09 09:45:44;;;;;;;2.23;1.77;;;26.70;70.50;;;;;;4948350;28;20511;-71
2023/06/09 09:48:13;;;;;;;1.77;1.67;;;26.60;72.20;;;;;;4950601;28;20808;-72
2023/06/09 09:50:41;;;;;;;2.00;2.00;;;26.40;70.80;;;;;;4952751;28;20947;-71
2023/06/09 09:53:08;;;;;;;1.50;1.50;;;26.40;70.60;;;;;;4943777;28;20473;-71
2023/06/09 09:55:36;;;;;;;1.10;1.10;;;26.40;71.90;;;;;;4951220;28;20555;-71
2023/06/09 09:58:05;;;;;;;1.37;1.37;;;26.30;70.80;;;;;;4946281;28;20553;-71
2023/06/09 10:00:35;;;;;;;1.30;1.30;;;26.40;70.40;;;;;;4959167;28;20968;-71
2023/06/09 10:03:08;;;;;;;1.53;1.53;;;26.40;71.10;;;;;;4951905;28;20498;-71
2023/06/09 10:05:38;;;;;;;2.60;1.70;;;26.40;70.00;;;;;;4948334;28;20459;-71
2023/06/09 10:08:06;;;;;;;2.60;2.50;;;26.40;72.40;;;;;;4944015;28;20606;-72
2023/06/09 10:10:35;;;;;;;1.63;1.63;;;26.40;72.50;;;;;;4949577;28;20547;-72
2023/06/09 10:13:03;;;;;;;2.03;1.93;;;26.10;74.00;;;;;;4957679;28;20497;-72
2023/06/09 10:15:31;;;;;;;2.63;1.80;;;26.00;74.10;;;;;;4942652;28;20470;-72
2023/06/09 10:18:00;;;;;;;1.40;1.30;;;26.00;74.50;;;;;;4953816;28;20758;-72
2023/06/09 10:20:27;;;;;;;2.30;2.17;;;26.10;72.70;;;;;;4938533;29;20468;-72
2023/06/09 10:22:55;;;;;;;4.00;1.50;;;26.30;68.60;;;;;;4949286;28;20576;-72
2023/06/09 10:25:25;;;;;;;2.43;1.90;;;26.40;68.60;;;;;;4938974;29;20593;-72
2023/06/09 10:27:52;;;;;;;1.07;1.07;;;26.30;69.30;;;;;;4939414;28;20987;-72
2023/06/09 10:30:20;;;;;;;1.67;1.67;;;26.30;69.80;;;;;;4944627;28;20471;-72
2023/06/09 10:32:52;;;;;;;4.20;1.90;;;26.50;71.80;;;;;;4964491;28;20462;-73
2023/06/09 10:35:26;;;;;;;1.70;1.60;;;26.30;72.40;;;;;;4940453;29;20502;-73
2023/06/09 10:37:54;;;;;;;1.83;1.50;;;26.30;71.50;;;;;;4949641;29;20522;-71
2023/06/09 10:40:41;;;;;;;1.83;1.73;;;26.50;72.20;;;;;;4948945;28;20485;-72
2023/06/09 10:43:24;;;;;;;1.97;1.83;;;26.40;69.50;;;;;;4945163;28;20475;-72
2023/06/09 10:45:53;;;;;;;3.07;2.77;;;26.30;71.10;;;;;;4947200;28;20459;-72
2023/06/09 10:48:45;;;;;;;1.80;1.60;;;26.60;70.30;;;;;;4938347;29;20475;-72
2023/06/09 10:51:41;;;;;;;2.20;2.10;;;26.70;70.00;;;;;;4957745;28;20477;-71
2023/06/09 10:54:26;;;;;;;1.87;1.50;;;26.60;67.80;;;;;;4945562;28;20470;-71
2023/06/09 10:56:55;;;;;;;1.80;1.80;;;26.50;68.60;;;;;;4951242;28;20989;-73
2023/06/09 11:00:10;;;;;;;1.50;1.40;;;26.60;71.10;;;;;;4951866;28;20485;-73
2023/06/09 11:02:37;;;;;;;1.50;1.50;;;26.70;68.40;;;;;;4955154;28;20467;-73
2023/06/09 11:05:05;;;;;;;2.93;1.50;;;26.80;65.30;;;;;;4953256;28;20484;-72
2023/06/09 11:07:41;;;;;;;3.10;1.93;;;26.80;65.70;;;;;;4946863;28;20499;-72
2023/06/09 11:10:38;;;;;;;1.80;1.80;;;26.70;66.20;;;;;;4951073;28;20491;-72
2023/06/09 11:13:39;;;;;;;1.87;1.80;;;26.70;63.80;;;;;;4955663;28;20993;-72
2023/06/09 11:16:06;;;;;;;1.47;1.47;;;26.60;65.80;;;;;;4954929;28;20499;-73
2023/06/09 11:18:33;;;;;;;1.63;1.53;;;26.70;66.30;;;;;;4955960;28;20826;-72
2023/06/09 11:21:23;;;;;;;1.20;1.20;;;26.70;61.50;;;;;;4962689;28;20467;-73
2023/06/09 11:24:14;;;;;;;1.23;1.23;;;26.80;61.70;;;;;;4954403;28;20996;-72
2023/06/09 11:26:41;;;;;;;1.50;1.50;;;26.90;63.30;;;;;;4949050;28;20864;-73
2023/06/09 11:29:22;;;;;;;2.30;1.67;;;27.00;63.70;;;;;;4960373;28;20482;-71
2023/06/09 11:31:50;;;;;;;1.80;1.70;;;27.00;64.30;;;;;;4963000;28;20467;-71
2023/06/09 11:34:49;;;;;;;1.20;1.20;;;27.20;60.50;;;;;;4966523;28;20448;-71
2023/06/09 11:37:18;;;;;;;1.50;1.47;;;27.40;60.20;;;;;;4953464;28;20503;-71
2023/06/09 11:39:46;;;;;;;1.40;1.40;;;27.50;59.20;;;;;;4962374;28;20590;-71
2023/06/09 11:42:14;;;;;;;1.40;1.40;;;27.60;60.40;;;;;;4961581;28;20496;-71
2023/06/09 11:44:41;;;;;;;1.30;1.30;;;27.60;57.80;;;;;;4953987;28;20562;-71
2023/06/09 11:47:23;;;;;;;1.57;1.53;;;27.70;60.10;;;;;;4947581;28;20502;-71
2023/06/09 11:49:59;;;;;;;1.33;1.30;;;27.70;62.30;;;;;;4957811;28;21105;-71
2023/06/09 11:52:26;;;;;;;2.30;2.20;;;27.70;63.50;;;;;;4946439;28;20829;-70
2023/06/09 11:54:54;;;;;;;1.63;1.63;;;27.70;64.20;;;;;;4953703;28;20469;-71
2023/06/09 11:57:22;;;;;;;1.67;1.67;;;27.70;63.30;;;;;;4949577;28;20497;-72
2023/06/09 11:59:49;;;;;;;1.90;1.90;;;27.70;65.00;;;;;;4942183;29;20467;-72
2023/06/09 12:02:18;;;;;;;1.90;1.80;;;27.70;64.10;;;;;;4952652;29;20558;-72
2023/06/09 12:04:45;;;;;;;1.20;1.20;;;27.50;65.00;;;;;;4943110;28;20488;-73
2023/06/09 12:07:17;;;;;;;1.60;1.50;;;27.70;64.60;;;;;;4942360;28;20587;-71
2023/06/09 12:09:44;;;;;;;2.53;2.30;;;27.70;65.30;;;;;;4941049;28;20467;-71
2023/06/09 12:12:12;;;;;;;1.83;1.83;;;27.70;64.50;;;;;;4947763;28;20500;-74
2023/06/09 12:14:39;;;;;;;2.03;1.90;;;27.70;63.70;;;;;;4951871;28;20462;-72
2023/06/09 12:17:06;;;;;;;1.53;1.53;;;27.80;61.60;;;;;;4941378;28;21060;-72
2023/06/09 12:19:34;;;;;;;1.40;1.40;;;27.70;59.30;;;;;;4948763;28;20504;-72
2023/06/09 12:22:02;;;;;;;2.00;1.80;;;27.70;61.10;;;;;;4950875;29;20475;-74
2023/06/09 12:24:31;;;;;;;1.43;1.33;;;27.70;59.40;;;;;;4945459;29;20496;-73
2023/06/09 12:26:58;;;;;;;1.30;1.30;;;27.70;57.90;;;;;;4943299;29;20890;-73
2023/06/09 12:29:29;;;;;;;0.93;0.93;;;27.60;54.40;;;;;;4955475;28;20862;-73
2023/06/09 12:31:55;;;;;;;1.57;1.47;;;27.50;55.10;;;;;;4949845;29;20465;-73
2023/06/09 12:34:25;;;;;;;1.50;1.40;;;27.50;56.40;;;;;;4953010;28;20470;-73
2023/06/09 12:36:52;;;;;;;2.37;2.27;;;27.50;55.70;;;;;;4953568;28;20484;-73
2023/06/09 12:39:21;;;;;;;1.50;1.30;;;27.40;58.40;;;;;;4948400;28;20469;-74
2023/06/09 12:41:48;;;;;;;2.53;2.33;;;27.30;60.20;;;;;;4952650;28;20475;-72
2023/06/09 12:44:20;;;;;;;2.00;1.53;;;27.30;59.20;;;;;;4948917;28;20490;-71
2023/06/09 12:46:54;;;;;;;1.23;1.23;;;27.30;58.90;;;;;;4949515;28;20898;-72
2023/06/09 12:49:29;;;;;;;1.60;1.57;;;27.40;59.30;;;;;;4946042;28;20629;-73
2023/06/09 12:51:56;;;;;;;1.67;1.57;;;27.40;59.50;;;;;;4953036;28;20475;-74
2023/06/09 12:54:23;;;;;;;1.17;1.17;;;27.30;58.70;;;;;;4946194;28;20465;-72
2023/06/09 12:56:49;;;;;;;1.83;1.73;;;27.40;58.70;;;;;;4949877;28;20493;-74
2023/06/09 12:59:16;;;;;;;1.30;1.30;;;27.40;58.90;;;;;;4951550;28;20475;-74
2023/06/09 13:01:43;;;;;;;1.13;1.13;;;27.60;58.30;;;;;;4945373;28;20957;-72
2023/06/09 13:04:11;;;;;;;1.97;1.87;;;27.70;58.10;;;;;;4950566;28;20500;-72
2023/06/09 13:06:38;;;;;;;1.37;1.37;;;27.70;57.90;;;;;;4958047;28;20492;-72
2023/06/09 13:09:04;;;;;;;1.80;1.47;;;27.70;58.40;;;;;;4961825;28;20857;-71
2023/06/09 13:11:32;;;;;;;1.90;1.53;;;27.80;57.50;;;;;;4955499;28;20474;-71
2023/06/09 13:13:58;;;;;;;1.13;1.13;;;27.70;58.50;;;;;;4942931;28;20505;-72
2023/06/09 13:16:25;;;;;;;1.73;1.70;;;27.70;57.70;;;;;;4946832;28;20520;-72
2023/06/09 13:18:52;;;;;;;1.53;1.53;;;27.80;57.10;;;;;;4946267;28;20479;-73
2023/06/09 13:21:20;;;;;;;1.77;1.77;;;27.80;57.20;;;;;;4949495;29;20476;-71
2023/06/09 13:23:47;;;;;;;1.70;1.60;;;27.90;57.80;;;;;;4951584;28;20465;-71
2023/06/09 13:26:13;;;;;;;2.37;2.17;;;27.90;57.70;;;;;;4946437;28;20503;-72
2023/06/09 13:28:40;;;;;;;1.50;1.50;;;28.00;59.10;;;;;;4954329;28;22181;-72
2023/06/09 13:31:07;;;;;;;1.40;1.40;;;28.00;57.30;;;;;;4953588;28;20477;-71
2023/06/09 13:33:34;;;;;;;1.90;1.80;;;28.00;58.00;;;;;;4952618;28;20477;-71
2023/06/09 13:36:00;;;;;;;1.40;1.30;;;28.10;57.40;;;;;;4969317;28;20486;-70
2023/06/09 13:38:29;;;;;;;1.57;1.57;;;28.30;57.50;;;;;;4948154;28;20503;-72
2023/06/09 13:40:55;;;;;;;2.30;1.87;;;28.20;57.90;;;;;;4964679;28;20955;-71
2023/06/09 13:43:22;;;;;;;1.83;1.73;;;28.20;56.10;;;;;;4953323;28;20924;-72
2023/06/09 13:45:49;;;;;;;2.23;2.03;;;28.30;55.00;;;;;;4950105;28;20497;-72
2023/06/09 13:48:16;;;;;;;1.40;1.40;;;28.30;55.00;;;;;;4951858;28;20984;-71
2023/06/09 13:50:43;;;;;;;1.23;1.23;;;28.30;54.70;;;;;;4954642;28;20496;-72
2023/06/09 13:53:10;;;;;;;1.37;1.37;;;28.10;54.20;;;;;;4962319;28;20471;-72
2023/06/09 13:55:38;;;;;;;1.50;1.40;;;27.90;53.60;;;;;;4963579;28;20926;-72
2023/06/09 13:58:05;;;;;;;1.37;1.33;;;27.80;54.70;;;;;;4960700;28;20469;-72
2023/06/09 14:00:32;;;;;;;1.87;1.60;;;27.90;54.50;;;;;;4950592;28;20538;-72
2023/06/09 14:02:58;;;;;;;1.37;1.37;;;27.90;54.60;;;;;;4953981;28;20495;-71
2023/06/09 14:05:25;;;;;;;1.40;1.37;;;28.00;56.00;;;;;;4965513;28;21014;-70
2023/06/09 14:07:52;;;;;;;2.37;1.57;;;27.80;55.60;;;;;;4948994;28;20522;-71
2023/06/09 14:10:19;;;;;;;1.17;1.17;;;27.80;55.40;;;;;;4949147;28;20575;-72
2023/06/09 14:12:48;;;;;;;2.53;1.20;;;27.60;55.50;;;;;;4947674;28;20513;-73
2023/06/09 14:15:16;;;;;;;1.13;1.13;;;27.70;57.20;;;;;;4951541;28;20464;-72
2023/06/09 14:17:49;;;;;;;1.40;1.40;;;27.90;57.30;;;;;;4957620;28;20508;-72
2023/06/09 14:20:19;;;;;;;1.10;1.10;;;28.10;57.20;;;;;;4948960;28;20484;-74
2023/06/09 14:22:46;;;;;;;1.23;1.13;;;28.20;56.70;;;;;;4945462;28;20460;-74
2023/06/09 14:25:18;;;;;;;1.10;1.10;;;28.00;56.60;;;;;;4948633;28;20554;-73
2023/06/09 14:27:47;;;;;;;1.30;1.30;;;27.90;56.40;;;;;;4946976;28;20554;-74
2023/06/09 14:30:15;;;;;;;1.30;1.30;;;27.80;56.10;;;;;;4952232;28;20527;-72
2023/06/09 14:32:44;;;;;;;1.53;1.53;;;27.90;57.30;;;;;;4954256;28;20477;-71
2023/06/09 14:35:11;;;;;;;1.23;1.23;;;28.10;56.90;;;;;;4946317;28;20484;-71
2023/06/09 14:37:38;;;;;;;1.30;1.30;;;28.10;56.60;;;;;;4946566;28;20488;-72
2023/06/09 14:40:06;;;;;;;1.60;1.60;;;28.20;56.40;;;;;;4957223;28;20958;-72
2023/06/09 14:42:33;;;;;;;1.40;1.40;;;28.30;56.70;;;;;;4970098;28;20990;-74
2023/06/09 14:45:01;;;;;;;1.50;1.40;;;28.40;56.00;;;;;;4957489;28;20520;-72
2023/06/09 14:47:27;;;;;;;2.00;1.90;;;28.30;56.40;;;;;;4947538;28;20492;-73
2023/06/09 14:49:54;;;;;;;1.57;1.47;;;28.20;56.60;;;;;;4940418;28;20470;-73
2023/06/09 14:52:21;;;;;;;1.13;1.13;;;28.20;56.20;;;;;;4946343;28;20477;-71
2023/06/09 14:54:49;;;;;;;1.27;1.27;;;28.10;56.70;;;;;;4949843;28;20472;-72
2023/06/09 14:57:16;;;;;;;1.23;1.23;;;28.10;57.80;;;;;;4946245;28;20498;-72
2023/06/09 14:59:43;;;;;;;1.70;1.60;;;28.20;58.30;;;;;;4950011;28;20476;-73
2023/06/09 15:02:11;;;;;;;1.97;1.93;;;28.30;58.40;;;;;;4947986;28;20481;-72
2023/06/09 15:04:38;;;;;;;1.90;1.83;;;28.30;59.10;;;;;;4952856;28;20466;-72
2023/06/09 15:07:05;;;;;;;1.50;1.50;;;28.50;60.00;;;;;;4947849;28;20496;-71
2023/06/09 15:09:32;;;;;;;2.03;1.93;;;28.50;62.60;;;;;;4959383;28;20995;-71
2023/06/09 15:11:59;;;;;;;4.63;2.47;;;28.50;64.10;;;;;;4962957;28;20901;-71
2023/06/09 15:14:25;;;;;;;1.33;1.33;;;28.50;66.50;;;;;;4962738;28;20587;-71
2023/06/09 15:16:52;;;;;;;2.73;1.87;;;28.30;66.20;;;;;;4947826;29;20496;-71
2023/06/09 15:19:20;;;;;;;2.13;1.93;;;28.00;67.60;;;;;;4953540;28;20500;-71
2023/06/09 15:21:47;;;;;;;1.90;1.90;;;28.20;67.90;;;;;;4957877;28;20468;-72
2023/06/09 15:24:14;;;;;;;1.97;1.87;;;28.20;68.30;;;;;;4955384;28;20482;-72
2023/06/09 15:26:40;;;;;;;3.90;2.10;;;28.10;69.10;;;;;;4949547;28;20494;-72
2023/06/09 15:29:07;;;;;;;1.53;1.43;;;28.00;68.90;;;;;;4944655;28;20970;-73
2023/06/09 15:31:34;;;;;;;2.13;2.03;;;27.80;68.60;;;;;;4950129;29;20483;-72
2023/06/09 15:34:00;;;;;;;2.17;2.07;;;27.60;69.10;;;;;;4964742;28;20958;-73
2023/06/09 15:36:29;;;;;;;1.53;1.43;;;27.60;69.30;;;;;;4960738;28;20494;-73
2023/06/09 15:38:55;;;;;;;1.63;1.53;;;27.40;69.20;;;;;;4956667;28;20477;-72
2023/06/09 15:41:22;;;;;;;3.00;1.70;;;27.30;70.50;;;;;;4963355;28;20948;-71
2023/06/09 15:43:52;;;;;;;1.37;1.37;;;27.30;71.50;;;;;;4946778;28;20487;-72
2023/06/09 15:46:19;;;;;;;1.90;1.80;;;27.40;72.40;;;;;;4958912;28;20505;-71
2023/06/09 15:48:45;;;;;;;1.37;1.27;;;27.20;72.30;;;;;;4954051;28;20786;-73
2023/06/09 15:51:12;;;;;;;3.80;2.03;;;27.20;74.20;;;;;;4957692;28;20470;-73
2023/06/09 15:53:40;;;;;;;2.03;2.03;;;27.20;75.10;;;;;;4961486;28;20951;-72
2023/06/09 15:56:07;;;;;;;2.07;1.97;;;27.20;75.60;;;;;;4953068;28;20492;-73
2023/06/09 15:58:34;;;;;;;2.67;2.47;;;27.30;75.90;;;;;;4953214;28;20471;-73
2023/06/09 16:01:00;;;;;;;1.80;1.70;;;27.10;76.60;;;;;;4944315;28;21095;-73
2023/06/09 16:03:27;;;;;;;1.80;1.77;;;27.00;77.00;;;;;;4951731;28;20473;-72
2023/06/09 16:05:54;;;;;;;2.03;2.00;;;26.90;78.30;;;;;;4948497;28;20499;-73
2023/06/09 16:08:21;;;;;;;2.23;2.13;;;26.90;78.10;;;;;;4959054;28;20994;-73
2023/06/09 16:10:50;;;;;;;1.80;1.80;;;26.70;78.30;;;;;;4952447;28;20482;-72
2023/06/09 16:13:17;;;;;;;3.40;2.50;;;26.50;78.50;;;;;;4958022;28;20470;-72
2023/06/09 16:15:43;;;;;;;4.20;2.23;;;26.50;79.60;;;;;;4963456;28;20457;-72
2023/06/09 16:18:12;;;;;;;1.87;1.67;;;26.60;79.70;;;;;;4952618;28;20524;-72
2023/06/09 16:20:40;;;;;;;2.50;2.40;;;26.40;79.50;;;;;;4952143;28;20496;-72
2023/06/09 16:23:08;;;;;;;3.17;2.43;;;26.10;80.20;;;;;;4959577;28;20590;-72
2023/06/09 16:25:34;;;;;;;2.63;2.10;;;26.20;80.90;;;;;;4944183;28;21079;-72
2023/06/09 16:28:05;;;;;;;2.47;2.27;;;26.30;81.00;;;;;;4951516;28;20473;-72
2023/06/09 16:30:35;;;;;;;2.73;2.53;;;26.20;81.30;;;;;;4970148;28;20468;-73
2023/06/09 16:33:02;;;;;;;2.77;2.67;;;26.10;81.90;;;;;;4955763;28;20552;-73
2023/06/09 16:35:29;;;;;;;2.10;2.00;;;26.00;82.50;;;;;;4957684;28;20644;-73
2023/06/09 16:37:56;;;;;;;3.50;2.60;;;26.00;83.60;;;;;;4948127;28;20573;-73
2023/06/09 16:40:24;;;;;;;1.83;1.83;;;25.80;84.40;;;;;;4956155;28;20486;-72
2023/06/09 16:42:51;;;;;;;1.90;1.90;;;25.70;84.90;;;;;;4961254;28;20472;-72
2023/06/09 16:45:19;;;;;;;5.13;2.60;;;25.60;85.70;;;;;;4961868;28;20463;-74
2023/06/09 16:47:46;;;;;;;3.03;2.83;;;25.40;86.50;;;;;;4952951;28;20570;-73
2023/06/09 16:50:12;;;;;;;1.83;1.77;;;25.40;87.50;;;;;;4962689;28;20963;-73
2023/06/09 16:52:39;;;;;;;3.07;2.93;;;25.40;88.20;;;;;;4967150;28;20504;-72
2023/06/09 16:55:07;;;;;;;3.97;1.70;;;25.40;88.70;;;;;;4951431;28;20562;-72